createdAt,value
2023-03-27T00:00:47.236Z,1.20
2023-03-27T00:01:57.239Z,1.10
2023-03-27T00:03:00.229Z,1.10
2023-03-27T00:04:03.262Z,1.20
2023-03-27T00:05:06.261Z,1.20
2023-03-27T00:06:11.931Z,1.30
2023-03-27T00:07:14.876Z,1.30
2023-03-27T00:08:17.853Z,1.20
2023-03-27T00:09:21.848Z,1.40
2023-03-27T00:10:24.823Z,1.10
2023-03-27T00:11:27.861Z,1.00
2023-03-27T00:12:30.725Z,1.00
2023-03-27T00:13:33.818Z,1.20
2023-03-27T00:14:36.662Z,1.20
2023-03-27T00:15:39.590Z,1.20
2023-03-27T00:16:43.064Z,1.70
2023-03-27T00:17:48.246Z,1.30
2023-03-27T00:18:51.659Z,1.00
2023-03-27T00:19:54.577Z,1.60
2023-03-27T00:20:59.005Z,1.30
2023-03-27T00:22:02.133Z,1.60
2023-03-27T00:23:06.386Z,1.20
2023-03-27T00:24:09.354Z,1.10
2023-03-27T00:25:12.193Z,1.10
2023-03-27T00:26:16.034Z,1.10
2023-03-27T00:27:20.050Z,1.30
2023-03-27T00:28:24.215Z,1.30
2023-03-27T00:29:27.737Z,1.20
2023-03-27T00:30:31.337Z,1.10
2023-03-27T00:31:34.245Z,1.50
2023-03-27T00:32:37.282Z,1.30
2023-03-27T00:33:41.288Z,1.30
2023-03-27T00:34:44.157Z,1.30
2023-03-27T00:35:49.931Z,1.20
2023-03-27T00:36:53.790Z,1.30
2023-03-27T00:37:57.576Z,1.20
2023-03-27T00:39:00.764Z,1.20
2023-03-27T00:40:08.039Z,1.20
2023-03-27T00:41:10.919Z,1.20
2023-03-27T00:42:14.868Z,1.30
2023-03-27T00:43:36.269Z,1.60
2023-03-27T00:44:39.830Z,1.20
2023-03-27T00:45:43.494Z,1.30
2023-03-27T00:46:46.384Z,1.20
2023-03-27T00:47:55.443Z,1.10
2023-03-27T00:49:01.894Z,1.00
2023-03-27T00:50:15.487Z,1.20
2023-03-27T00:51:21.080Z,1.40
2023-03-27T00:52:31.338Z,1.40
2023-03-27T00:53:34.553Z,1.40
2023-03-27T00:54:38.943Z,1.20
2023-03-27T00:55:44.941Z,1.20
2023-03-27T00:56:49.878Z,1.30
2023-03-27T00:58:07.492Z,1.30
2023-03-27T00:59:16.110Z,1.40
2023-03-27T01:00:20.093Z,1.20
2023-03-27T01:01:26.169Z,1.20
2023-03-27T01:02:29.070Z,1.30
2023-03-27T01:03:32.939Z,1.30
2023-03-27T01:04:37.486Z,1.20
2023-03-27T01:05:41.272Z,1.50
2023-03-27T01:06:44.773Z,1.10
2023-03-27T01:08:01.251Z,1.30
2023-03-27T01:09:04.971Z,1.60
2023-03-27T01:10:08.790Z,1.30
2023-03-27T01:11:36.477Z,1.40
2023-03-27T01:13:04.549Z,1.70
2023-03-27T01:14:21.336Z,1.40
2023-03-27T01:15:49.809Z,1.50
2023-03-27T01:17:28.889Z,1.70
2023-03-27T01:18:34.946Z,1.50
2023-03-27T01:20:10.284Z,1.30
2023-03-27T01:21:41.274Z,2.10
2023-03-27T01:23:36.293Z,1.70
2023-03-27T01:24:57.619Z,1.60
2023-03-27T01:26:12.315Z,1.50
2023-03-27T01:27:40.106Z,1.50
2023-03-27T01:28:58.863Z,1.50
2023-03-27T01:30:10.144Z,1.60
2023-03-27T01:31:40.882Z,1.90
2023-03-27T01:32:50.082Z,1.60
2023-03-27T01:34:29.121Z,1.40
2023-03-27T01:36:04.490Z,1.70
2023-03-27T01:37:24.904Z,1.60
2023-03-27T01:38:34.261Z,1.70
2023-03-27T01:39:45.999Z,1.60
2023-03-27T01:41:04.191Z,1.50
2023-03-27T01:42:51.396Z,1.60
2023-03-27T01:44:17.172Z,1.50
2023-03-27T01:45:25.347Z,1.50
2023-03-27T01:47:02.343Z,1.80
2023-03-27T01:48:15.581Z,1.70
2023-03-27T01:49:25.234Z,1.50
2023-03-27T01:51:08.098Z,1.60
2023-03-27T01:52:18.083Z,1.50
2023-03-27T01:53:29.064Z,1.50
2023-03-27T01:54:36.037Z,1.50
2023-03-27T01:55:43.998Z,1.50
2023-03-27T01:57:22.318Z,1.20
2023-03-27T01:58:38.051Z,1.40
2023-03-27T01:59:44.658Z,1.40
2023-03-27T02:01:04.356Z,1.40
2023-03-27T02:02:13.332Z,1.20
2023-03-27T02:03:28.435Z,1.40
2023-03-27T02:04:41.136Z,1.20
2023-03-27T02:05:53.413Z,1.40
2023-03-27T02:07:02.238Z,1.40
2023-03-27T02:08:40.298Z,1.30
2023-03-27T02:10:08.336Z,1.30
2023-03-27T02:11:14.904Z,1.50
2023-03-27T02:12:24.371Z,1.20
2023-03-27T02:13:34.375Z,1.30
2023-03-27T02:14:42.042Z,1.60
2023-03-27T02:15:48.244Z,1.40
2023-03-27T02:16:55.561Z,1.40
2023-03-27T02:18:08.052Z,1.50
2023-03-27T02:19:19.760Z,1.60
2023-03-27T02:20:24.152Z,1.40
2023-03-27T02:21:27.913Z,1.40
2023-03-27T02:22:38.265Z,1.80
2023-03-27T02:23:43.565Z,1.60
2023-03-27T02:24:49.063Z,1.60
2023-03-27T02:25:54.298Z,1.50
2023-03-27T02:27:06.094Z,1.60
2023-03-27T02:28:29.165Z,1.50
2023-03-27T02:29:51.643Z,1.50
2023-03-27T02:31:33.102Z,1.50
2023-03-27T02:32:53.900Z,1.60
2023-03-27T02:34:18.616Z,1.70
2023-03-27T02:35:27.990Z,1.40
2023-03-27T02:37:03.877Z,1.60
2023-03-27T02:38:49.340Z,1.40
2023-03-27T02:40:01.162Z,1.70
2023-03-27T02:41:20.639Z,1.40
2023-03-27T02:42:42.070Z,1.50
2023-03-27T02:44:32.657Z,1.70
2023-03-27T02:45:48.731Z,1.60
2023-03-27T02:47:04.794Z,1.60
2023-03-27T02:48:29.018Z,1.50
2023-03-27T02:49:39.276Z,1.50
2023-03-27T02:50:49.425Z,1.80
2023-03-27T02:52:00.549Z,1.70
2023-03-27T02:53:06.763Z,1.70
2023-03-27T02:54:17.103Z,1.70
2023-03-27T02:55:28.779Z,1.60
2023-03-27T02:56:38.555Z,1.50
2023-03-27T02:57:51.569Z,1.70
2023-03-27T02:59:19.246Z,1.50
2023-03-27T03:00:26.469Z,1.50
2023-03-27T03:01:42.217Z,1.80
2023-03-27T03:03:08.102Z,1.60
2023-03-27T03:04:18.174Z,1.30
2023-03-27T03:05:41.357Z,1.50
2023-03-27T03:06:44.856Z,1.60
2023-03-27T03:07:48.815Z,1.40
2023-03-27T03:08:52.102Z,1.60
2023-03-27T03:09:55.138Z,1.50
2023-03-27T03:11:07.012Z,1.50
2023-03-27T03:12:10.076Z,1.80
2023-03-27T03:13:20.340Z,1.50
2023-03-27T03:14:28.003Z,1.90
2023-03-27T03:15:31.306Z,1.90
2023-03-27T03:16:34.288Z,1.60
2023-03-27T03:17:38.654Z,1.80
2023-03-27T03:18:41.513Z,1.70
2023-03-27T03:19:44.496Z,1.80
2023-03-27T03:20:47.334Z,1.70
2023-03-27T03:21:51.088Z,1.80
2023-03-27T03:22:53.935Z,1.70
2023-03-27T03:23:57.965Z,1.80
2023-03-27T03:25:02.556Z,1.50
2023-03-27T03:26:06.629Z,1.40
2023-03-27T03:27:22.516Z,1.70
2023-03-27T03:29:00.613Z,1.90
2023-03-27T03:30:05.153Z,1.80
2023-03-27T03:31:14.045Z,1.50
2023-03-27T03:32:17.814Z,1.90
2023-03-27T03:33:21.728Z,3.50
2023-03-27T03:34:24.797Z,1.80
2023-03-27T03:35:27.848Z,1.80
2023-03-27T03:36:31.430Z,1.90
2023-03-27T03:37:39.133Z,1.80
2023-03-27T03:38:44.218Z,1.60
2023-03-27T03:39:50.439Z,1.90
2023-03-27T03:40:55.823Z,1.80
2023-03-27T03:41:59.096Z,2.00
2023-03-27T03:43:01.900Z,2.10
2023-03-27T03:44:05.423Z,2.00
2023-03-27T03:45:09.133Z,1.90
2023-03-27T03:46:11.928Z,2.20
2023-03-27T03:47:16.819Z,1.80
2023-03-27T03:48:21.121Z,1.90
2023-03-27T03:49:24.097Z,1.80
2023-03-27T03:50:26.976Z,1.80
2023-03-27T03:51:31.379Z,2.30
2023-03-27T03:52:34.210Z,2.80
2023-03-27T03:53:37.047Z,2.80
2023-03-27T03:54:40.481Z,1.70
2023-03-27T03:55:44.890Z,1.70
2023-03-27T03:56:49.194Z,1.90
2023-03-27T03:57:52.368Z,1.90
2023-03-27T03:59:00.048Z,1.90
2023-03-27T04:00:08.527Z,1.70
2023-03-27T04:01:20.768Z,1.80
2023-03-27T04:02:30.298Z,2.10
2023-03-27T04:03:39.152Z,1.80
2023-03-27T04:04:43.739Z,1.90
2023-03-27T04:05:48.206Z,1.80
2023-03-27T04:06:51.064Z,1.80
2023-03-27T04:07:54.088Z,1.70
2023-03-27T04:09:15.915Z,2.00
2023-03-27T04:10:36.833Z,1.80
2023-03-27T04:11:41.816Z,1.90
2023-03-27T04:12:51.809Z,2.10
2023-03-27T04:13:59.500Z,1.80
2023-03-27T04:15:07.455Z,1.90
2023-03-27T04:16:44.683Z,2.10
2023-03-27T04:17:57.914Z,1.90
2023-03-27T04:19:01.513Z,2.00
2023-03-27T04:20:06.417Z,2.00
2023-03-27T04:21:14.599Z,2.20
2023-03-27T04:22:18.195Z,2.10
2023-03-27T04:23:21.120Z,2.20
2023-03-27T04:24:24.154Z,2.10
2023-03-27T04:25:28.634Z,2.20
2023-03-27T04:26:31.786Z,1.80
2023-03-27T04:27:57.177Z,2.20
2023-03-27T04:29:10.424Z,2.20
2023-03-27T04:30:50.239Z,2.30
2023-03-27T04:32:20.111Z,2.20
2023-03-27T04:34:01.359Z,1.90
2023-03-27T04:35:13.503Z,2.50
2023-03-27T04:36:28.487Z,2.40
2023-03-27T04:37:42.110Z,2.10
2023-03-27T04:39:23.237Z,2.30
2023-03-27T04:40:26.335Z,2.20
2023-03-27T04:41:29.691Z,2.20
2023-03-27T04:42:33.276Z,2.20
2023-03-27T04:43:36.849Z,2.10
2023-03-27T04:44:40.777Z,1.80
2023-03-27T04:45:48.204Z,2.20
2023-03-27T04:46:51.722Z,2.40
2023-03-27T04:47:54.864Z,2.20
2023-03-27T04:48:58.044Z,2.00
2023-03-27T04:50:19.483Z,2.00
2023-03-27T04:51:23.161Z,2.30
2023-03-27T04:52:26.074Z,2.10
2023-03-27T04:53:30.352Z,2.50
2023-03-27T04:54:34.246Z,3.50
2023-03-27T04:55:40.505Z,2.40
2023-03-27T04:56:45.760Z,2.40
2023-03-27T04:57:48.812Z,2.20
2023-03-27T04:58:51.705Z,2.30
2023-03-27T04:59:54.845Z,2.30
2023-03-27T05:01:17.227Z,2.10
2023-03-27T05:02:38.689Z,2.40
2023-03-27T05:03:54.809Z,2.10
2023-03-27T05:05:09.842Z,2.20
2023-03-27T05:06:13.737Z,1.90
2023-03-27T05:07:16.747Z,2.50
2023-03-27T05:08:20.357Z,2.40
2023-03-27T05:09:23.968Z,2.10
2023-03-27T05:10:27.236Z,2.20
2023-03-27T05:11:30.032Z,2.30
2023-03-27T05:12:33.150Z,2.00
2023-03-27T05:13:37.853Z,2.30
2023-03-27T05:14:41.316Z,2.20
2023-03-27T05:15:50.804Z,2.40
2023-03-27T05:16:57.660Z,2.60
2023-03-27T05:18:01.450Z,2.40
2023-03-27T05:19:06.066Z,2.10
2023-03-27T05:20:18.189Z,2.50
2023-03-27T05:21:21.167Z,2.20
2023-03-27T05:22:24.930Z,2.50
2023-03-27T05:23:34.556Z,2.20
2023-03-27T05:24:39.116Z,2.60
2023-03-27T05:25:45.344Z,2.50
2023-03-27T05:27:08.862Z,2.90
2023-03-27T05:28:12.618Z,2.40
2023-03-27T05:29:16.752Z,2.40
2023-03-27T05:30:23.354Z,3.00
2023-03-27T05:31:30.337Z,2.70
2023-03-27T05:32:52.577Z,2.40
2023-03-27T05:34:02.741Z,2.40
2023-03-27T05:35:09.155Z,2.70
2023-03-27T05:36:18.944Z,2.40
2023-03-27T05:37:24.527Z,2.50
2023-03-27T05:38:54.497Z,2.90
2023-03-27T05:40:28.259Z,2.50
2023-03-27T05:41:31.327Z,2.40
2023-03-27T05:42:34.185Z,2.50
2023-03-27T05:43:37.969Z,2.40
2023-03-27T05:44:43.225Z,2.40
2023-03-27T05:45:46.332Z,2.50
2023-03-27T05:46:49.307Z,2.70
2023-03-27T05:48:01.174Z,2.20
2023-03-27T05:49:04.491Z,2.40
2023-03-27T05:50:08.089Z,2.30
2023-03-27T05:51:11.058Z,2.20
2023-03-27T05:52:14.257Z,2.30
2023-03-27T05:53:17.454Z,2.50
2023-03-27T05:54:34.012Z,2.50
2023-03-27T05:55:42.014Z,2.40
2023-03-27T05:56:45.062Z,2.80
2023-03-27T05:57:48.178Z,2.10
2023-03-27T05:58:51.204Z,2.60
2023-03-27T05:59:54.108Z,2.20
2023-03-27T06:00:58.676Z,2.60
2023-03-27T06:02:01.745Z,2.30
2023-03-27T06:03:16.041Z,2.10
2023-03-27T06:04:37.062Z,2.40
2023-03-27T06:05:47.006Z,2.10
2023-03-27T06:06:50.420Z,1.80
2023-03-27T06:07:53.645Z,2.00
2023-03-27T06:08:57.122Z,2.10
2023-03-27T06:10:01.617Z,2.10
2023-03-27T06:11:19.638Z,2.00
2023-03-27T06:12:24.878Z,2.10
2023-03-27T06:13:33.941Z,1.90
2023-03-27T06:14:42.368Z,2.10
2023-03-27T06:16:06.431Z,2.20
2023-03-27T06:17:18.429Z,2.10
2023-03-27T06:18:28.737Z,1.60
2023-03-27T06:19:31.834Z,2.20
2023-03-27T06:20:35.601Z,1.90
2023-03-27T06:21:40.583Z,2.10
2023-03-27T06:22:55.624Z,1.80
2023-03-27T06:24:04.603Z,2.30
2023-03-27T06:25:09.048Z,2.30
2023-03-27T06:26:12.208Z,2.20
2023-03-27T06:27:15.418Z,2.00
2023-03-27T06:28:19.967Z,2.00
2023-03-27T06:29:28.180Z,2.30
2023-03-27T06:30:31.142Z,2.20
2023-03-27T06:31:57.460Z,2.10
2023-03-27T06:33:05.878Z,2.20
2023-03-27T06:34:09.709Z,2.10
2023-03-27T06:35:32.533Z,2.10
2023-03-27T06:36:48.473Z,2.10
2023-03-27T06:37:52.401Z,2.20
2023-03-27T06:38:56.427Z,2.40
2023-03-27T06:39:59.658Z,2.60
2023-03-27T06:41:02.864Z,2.20
2023-03-27T06:42:22.493Z,2.70
2023-03-27T06:43:30.841Z,2.20
2023-03-27T06:44:44.462Z,2.50
2023-03-27T06:46:06.813Z,2.40
2023-03-27T06:47:29.925Z,2.60
2023-03-27T06:48:55.758Z,2.70
2023-03-27T06:49:59.341Z,2.80
2023-03-27T06:51:02.830Z,2.80
2023-03-27T06:52:05.893Z,2.80
2023-03-27T06:53:23.479Z,2.70
2023-03-27T06:54:30.087Z,2.70
2023-03-27T06:55:33.957Z,2.90
2023-03-27T06:56:37.420Z,3.00
2023-03-27T06:58:00.227Z,3.00
2023-03-27T06:59:03.264Z,2.70
2023-03-27T07:00:12.640Z,2.60
2023-03-27T07:01:32.419Z,2.70
2023-03-27T07:03:00.020Z,2.60
2023-03-27T07:04:34.938Z,2.50
2023-03-27T07:05:49.079Z,2.20
2023-03-27T07:06:52.167Z,2.20
2023-03-27T07:07:56.210Z,2.20
2023-03-27T07:09:02.791Z,2.30
2023-03-27T07:10:06.788Z,1.70
2023-03-27T07:11:12.091Z,1.80
2023-03-27T07:12:29.015Z,2.00
2023-03-27T07:13:32.043Z,2.00
2023-03-27T07:14:36.568Z,1.80
2023-03-27T07:15:39.629Z,1.90
2023-03-27T07:16:44.094Z,1.70
2023-03-27T07:17:55.807Z,1.90
2023-03-27T07:19:01.976Z,1.90
2023-03-27T07:20:07.555Z,2.40
2023-03-27T07:21:10.577Z,1.90
2023-03-27T07:22:14.363Z,2.30
2023-03-27T07:23:17.754Z,1.60
2023-03-27T07:24:49.713Z,2.00
2023-03-27T07:25:58.306Z,2.20
2023-03-27T07:27:20.266Z,2.80
2023-03-27T07:28:23.414Z,2.00
2023-03-27T07:29:26.511Z,2.10
2023-03-27T07:30:31.534Z,2.00
2023-03-27T07:31:51.567Z,1.80
2023-03-27T07:33:07.432Z,1.80
2023-03-27T07:34:10.799Z,1.80
2023-03-27T07:35:32.486Z,1.70
2023-03-27T07:37:06.539Z,1.70
2023-03-27T07:38:10.506Z,1.70
2023-03-27T07:39:14.214Z,1.70
2023-03-27T07:40:29.492Z,1.80
2023-03-27T07:42:15.449Z,1.80
2023-03-27T07:43:27.379Z,1.50
2023-03-27T07:44:30.762Z,2.00
2023-03-27T07:45:37.910Z,1.50
2023-03-27T07:46:41.485Z,2.10
2023-03-27T07:47:46.160Z,1.80
2023-03-27T07:48:49.209Z,3.10
2023-03-27T07:49:53.484Z,2.30
2023-03-27T07:51:10.893Z,1.90
2023-03-27T07:52:16.735Z,1.70
2023-03-27T07:53:33.909Z,1.50
2023-03-27T07:54:58.197Z,1.50
2023-03-27T07:56:18.079Z,1.60
2023-03-27T07:57:22.649Z,1.70
2023-03-27T07:58:28.492Z,1.50
2023-03-27T07:59:32.259Z,1.50
2023-03-27T08:00:43.259Z,1.40
2023-03-27T08:01:50.574Z,1.80
2023-03-27T08:02:53.668Z,1.50
2023-03-27T08:03:58.084Z,1.70
2023-03-27T08:05:05.227Z,1.20
2023-03-27T08:06:09.755Z,1.50
2023-03-27T08:07:12.703Z,1.50
2023-03-27T08:08:17.534Z,1.30
2023-03-27T08:09:23.149Z,1.40
2023-03-27T08:10:26.173Z,1.50
2023-03-27T08:11:36.561Z,1.50
2023-03-27T08:12:39.517Z,1.50
2023-03-27T08:13:42.474Z,1.50
2023-03-27T08:14:47.137Z,1.50
2023-03-27T08:16:06.711Z,1.50
2023-03-27T08:17:16.291Z,1.50
2023-03-27T08:19:23.702Z,1.50
2023-03-27T08:20:30.299Z,1.60
2023-03-27T08:21:34.296Z,1.80
2023-03-27T08:22:38.526Z,2.00
2023-03-27T08:24:02.701Z,1.60
2023-03-27T08:25:11.346Z,1.60
2023-03-27T08:26:16.047Z,1.70
2023-03-27T08:27:26.410Z,1.50
2023-03-27T08:28:35.972Z,1.60
2023-03-27T08:29:39.123Z,1.80
2023-03-27T08:30:41.967Z,1.50
2023-03-27T08:31:45.891Z,1.80
2023-03-27T08:32:49.555Z,1.60
2023-03-27T08:33:54.379Z,1.60
2023-03-27T08:35:01.857Z,1.80
2023-03-27T08:36:05.343Z,1.50
2023-03-27T08:37:08.977Z,2.20
2023-03-27T08:38:25.990Z,2.00
2023-03-27T08:39:59.229Z,1.90
2023-03-27T08:41:03.842Z,1.90
2023-03-27T08:42:27.394Z,2.00
2023-03-27T08:43:43.151Z,2.00
2023-03-27T08:44:46.733Z,1.90
2023-03-27T08:46:04.693Z,1.70
2023-03-27T08:47:16.826Z,2.00
2023-03-27T08:48:36.398Z,1.80
2023-03-27T08:49:50.734Z,2.10
2023-03-27T08:51:12.307Z,2.20
2023-03-27T08:52:21.074Z,2.00
2023-03-27T08:53:49.080Z,2.10
2023-03-27T08:55:26.065Z,2.00
2023-03-27T08:56:39.011Z,1.70
2023-03-27T08:57:43.036Z,1.80
2023-03-27T08:58:50.544Z,2.00
2023-03-27T09:00:01.153Z,1.70
2023-03-27T09:01:11.665Z,1.80
2023-03-27T09:02:23.773Z,2.10
2023-03-27T09:03:35.245Z,2.60
2023-03-27T09:04:44.725Z,1.60
2023-03-27T09:05:52.884Z,2.00
2023-03-27T09:07:34.842Z,1.90
2023-03-27T09:09:10.930Z,1.70
2023-03-27T09:10:30.140Z,1.70
2023-03-27T09:11:52.042Z,1.70
2023-03-27T09:13:08.011Z,1.80
2023-03-27T09:14:43.002Z,1.60
2023-03-27T09:16:01.003Z,1.60
2023-03-27T09:17:16.105Z,1.70
2023-03-27T09:18:33.348Z,1.60
2023-03-27T09:20:08.846Z,1.60
2023-03-27T09:21:18.094Z,1.70
2023-03-27T09:22:28.594Z,1.80
2023-03-27T09:23:46.446Z,1.70
2023-03-27T09:25:21.166Z,1.50
2023-03-27T09:26:44.059Z,1.80
2023-03-27T09:28:25.191Z,1.70
2023-03-27T09:29:39.565Z,1.90
2023-03-27T09:30:55.877Z,1.70
2023-03-27T09:32:04.066Z,1.60
2023-03-27T09:33:10.315Z,1.50
2023-03-27T09:34:18.851Z,2.20
2023-03-27T09:35:22.743Z,1.60
2023-03-27T09:36:27.948Z,1.50
2023-03-27T09:37:34.536Z,1.40
2023-03-27T09:38:44.593Z,1.90
2023-03-27T09:39:54.656Z,2.00
2023-03-27T09:41:10.657Z,1.70
2023-03-27T09:42:28.840Z,1.90
2023-03-27T09:43:46.676Z,1.70
2023-03-27T09:44:58.290Z,1.60
2023-03-27T09:46:03.214Z,1.60
2023-03-27T09:47:25.451Z,1.90
2023-03-27T09:48:40.079Z,1.60
2023-03-27T09:49:53.028Z,1.40
2023-03-27T09:50:58.791Z,1.70
2023-03-27T09:52:07.914Z,1.60
2023-03-27T09:53:26.006Z,1.80
2023-03-27T09:54:52.051Z,1.60
2023-03-27T09:55:59.009Z,1.50
2023-03-27T09:57:11.048Z,1.70
2023-03-27T09:58:28.902Z,1.60
2023-03-27T09:59:37.934Z,1.80
2023-03-27T10:00:45.359Z,1.90
2023-03-27T10:01:51.001Z,1.70
2023-03-27T10:03:03.740Z,1.70
2023-03-27T10:04:17.281Z,1.70
2023-03-27T10:05:23.130Z,1.50
2023-03-27T10:06:37.790Z,1.70
2023-03-27T10:07:50.037Z,1.70
2023-03-27T10:09:22.741Z,1.60
2023-03-27T10:10:27.808Z,1.70
2023-03-27T10:11:42.761Z,1.70
2023-03-27T10:12:58.417Z,1.80
2023-03-27T10:14:16.344Z,1.40
2023-03-27T10:15:31.337Z,1.40
2023-03-27T10:16:40.611Z,1.50
2023-03-27T10:17:48.817Z,1.70
2023-03-27T10:18:55.779Z,1.50
2023-03-27T10:20:17.593Z,1.40
2023-03-27T10:21:32.824Z,1.50
2023-03-27T10:22:40.020Z,1.70
2023-03-27T10:23:48.252Z,1.50
2023-03-27T10:25:19.182Z,1.50
2023-03-27T10:26:37.100Z,1.30
2023-03-27T10:27:43.659Z,1.30
2023-03-27T10:29:24.668Z,1.50
2023-03-27T10:30:33.664Z,1.50
2023-03-27T10:31:51.358Z,1.40
2023-03-27T10:33:30.192Z,1.50
2023-03-27T10:34:55.234Z,1.60
2023-03-27T10:36:20.187Z,1.20
2023-03-27T10:37:28.660Z,1.40
2023-03-27T10:39:00.832Z,1.60
2023-03-27T10:40:31.207Z,1.50
2023-03-27T10:41:39.638Z,1.50
2023-03-27T10:42:44.131Z,1.60
2023-03-27T10:43:49.172Z,1.50
2023-03-27T10:44:56.518Z,1.50
2023-03-27T10:46:05.841Z,1.50
2023-03-27T10:47:20.650Z,1.80
2023-03-27T10:48:37.465Z,1.60
2023-03-27T10:49:46.246Z,1.50
2023-03-27T10:51:14.009Z,1.70
2023-03-27T10:53:09.102Z,1.60
2023-03-27T10:54:31.331Z,1.50
2023-03-27T10:55:56.293Z,1.60
2023-03-27T10:57:06.194Z,1.60
2023-03-27T10:58:22.441Z,1.60
2023-03-27T11:01:18.663Z,1.60
2023-03-27T11:02:44.931Z,1.50
2023-03-27T11:03:47.582Z,1.50
2023-03-27T11:03:55.589Z,1.70
2023-03-27T11:05:24.700Z,1.60
2023-03-27T11:06:34.219Z,1.20
2023-03-27T11:07:43.464Z,1.30
2023-03-27T11:08:55.241Z,1.20
2023-03-27T11:10:11.994Z,1.30
2023-03-27T11:11:32.104Z,1.30
2023-03-27T11:12:39.843Z,1.50
2023-03-27T11:13:46.497Z,1.60
2023-03-27T11:15:01.255Z,1.40
2023-03-27T11:16:23.328Z,1.30
2023-03-27T11:18:10.462Z,1.30
2023-03-27T11:19:47.722Z,1.60
2023-03-27T11:21:13.232Z,1.50
2023-03-27T11:22:35.451Z,1.50
2023-03-27T11:23:47.110Z,1.90
2023-03-27T11:25:43.315Z,1.60
2023-03-27T11:27:03.528Z,1.40
2023-03-27T11:28:25.029Z,1.50
2023-03-27T11:29:34.391Z,1.40
2023-03-27T11:30:46.573Z,1.20
2023-03-27T11:31:53.227Z,1.50
2023-03-27T11:33:49.061Z,1.60
2023-03-27T11:34:57.877Z,1.50
2023-03-27T11:36:34.679Z,1.20
2023-03-27T11:37:59.584Z,1.60
2023-03-27T11:39:22.801Z,1.80
2023-03-27T11:40:36.471Z,1.60
2023-03-27T11:41:39.427Z,1.80
2023-03-27T11:42:45.369Z,1.70
2023-03-27T11:43:48.904Z,1.50
2023-03-27T11:45:27.288Z,1.40
2023-03-27T11:46:52.838Z,1.50
2023-03-27T11:48:01.502Z,1.50
2023-03-27T11:49:27.226Z,1.30
2023-03-27T11:50:42.361Z,1.60
2023-03-27T11:52:27.658Z,1.20
2023-03-27T11:53:51.564Z,1.30
2023-03-27T11:56:03.024Z,1.50
2023-03-27T11:57:26.351Z,1.80
2023-03-27T11:58:56.746Z,1.20
2023-03-27T12:00:11.057Z,1.70
2023-03-27T12:01:47.450Z,1.50
2023-03-27T12:03:08.415Z,1.40
2023-03-27T12:04:20.696Z,1.40
2023-03-27T12:05:50.951Z,1.40
2023-03-27T12:07:36.113Z,1.70
2023-03-27T12:08:53.312Z,1.40
2023-03-27T12:10:11.726Z,1.40
2023-03-27T12:11:50.589Z,1.50
2023-03-27T12:12:59.764Z,1.40
2023-03-27T12:14:40.450Z,1.50
2023-03-27T12:16:00.134Z,1.30
2023-03-27T12:17:18.697Z,1.60
2023-03-27T12:19:01.989Z,1.60
2023-03-27T12:20:32.229Z,1.30
2023-03-27T12:21:55.860Z,1.40
2023-03-27T12:23:09.909Z,1.60
2023-03-27T12:25:07.924Z,1.40
2023-03-27T12:26:48.947Z,1.40
2023-03-27T12:28:56.097Z,1.40
2023-03-27T12:30:20.465Z,1.70
2023-03-27T12:31:48.807Z,1.50
2023-03-27T12:33:16.363Z,1.40
2023-03-27T12:34:52.216Z,1.30
2023-03-27T12:35:59.681Z,1.30
2023-03-27T12:37:04.946Z,1.50
2023-03-27T12:38:29.390Z,1.40
2023-03-27T12:39:56.503Z,1.10
2023-03-27T12:41:11.042Z,1.80
2023-03-27T12:42:51.957Z,1.30
2023-03-27T12:43:59.359Z,1.30
2023-03-27T12:45:38.737Z,1.40
2023-03-27T12:47:21.579Z,1.20
2023-03-27T12:48:27.141Z,1.40
2023-03-27T12:49:47.463Z,1.00
2023-03-27T12:50:58.415Z,1.30
2023-03-27T12:52:05.236Z,1.70
2023-03-27T12:53:27.992Z,1.00
2023-03-27T12:54:39.158Z,1.40
2023-03-27T12:56:10.422Z,1.50
2023-03-27T12:57:22.372Z,1.20
2023-03-27T12:58:34.495Z,1.30
2023-03-27T13:00:09.094Z,1.70
2023-03-27T13:01:25.970Z,1.20
2023-03-27T13:02:52.538Z,1.30
2023-03-27T13:04:04.526Z,1.30
2023-03-27T13:05:16.422Z,1.20
2023-03-27T13:06:44.204Z,1.50
2023-03-27T13:09:58.832Z,1.50
2023-03-27T13:11:20.404Z,1.30
2023-03-27T13:12:52.168Z,1.30
2023-03-27T13:14:07.608Z,1.10
2023-03-27T13:15:41.137Z,1.10
2023-03-27T13:17:23.132Z,1.30
2023-03-27T13:18:40.247Z,1.20
2023-03-27T13:19:49.244Z,1.30
2023-03-27T13:21:36.519Z,1.20
2023-03-27T13:22:54.671Z,1.20
2023-03-27T13:24:22.557Z,1.60
2023-03-27T13:25:39.249Z,1.40
2023-03-27T13:27:17.929Z,1.30
2023-03-27T13:28:34.478Z,1.30
2023-03-27T13:29:51.477Z,1.30
2023-03-27T13:30:57.916Z,1.40
2023-03-27T14:43:45.321Z,1.20
2023-03-27T14:44:48.742Z,2.30
2023-03-27T14:45:55.879Z,1.20
2023-03-27T14:47:03.835Z,1.00
2023-03-27T14:48:17.579Z,1.20
2023-03-27T14:49:27.463Z,1.00
2023-03-27T14:50:35.717Z,1.20
2023-03-27T14:51:48.034Z,1.10
2023-03-27T14:53:08.931Z,1.00
2023-03-27T14:54:44.685Z,1.10
2023-03-27T14:55:55.377Z,1.00
2023-03-27T14:57:22.687Z,1.10
2023-03-27T14:58:31.092Z,1.10
2023-03-27T14:59:37.872Z,1.10
2023-03-27T15:00:57.918Z,1.20
2023-03-27T15:02:19.505Z,1.20
2023-03-27T15:03:26.325Z,1.50
2023-03-27T15:04:32.893Z,1.60
2023-03-27T15:05:54.510Z,1.10
2023-03-27T15:07:18.964Z,1.20
2023-03-27T15:08:34.966Z,1.20
2023-03-27T15:10:02.598Z,1.40
2023-03-27T15:11:38.683Z,1.40
2023-03-27T15:12:47.690Z,1.70
2023-03-27T15:13:51.152Z,1.70
2023-03-27T15:15:00.943Z,1.40
2023-03-27T15:16:06.663Z,1.20
2023-03-27T15:17:14.937Z,1.50
2023-03-27T15:18:22.634Z,1.60
2023-03-27T15:19:32.225Z,1.50
2023-03-27T15:20:37.286Z,1.30
2023-03-27T15:21:51.053Z,1.40
2023-03-27T15:23:01.505Z,1.40
2023-03-27T15:24:22.091Z,1.80
2023-03-27T15:25:35.801Z,1.20
2023-03-27T15:26:39.517Z,1.50
2023-03-27T15:27:45.995Z,1.40
2023-03-27T15:29:14.139Z,1.30
2023-03-27T15:30:33.987Z,1.40
2023-03-27T15:31:37.506Z,1.60
2023-03-27T15:32:50.414Z,1.60
2023-03-27T15:34:06.200Z,1.50
2023-03-27T15:35:14.949Z,3.10
2023-03-27T15:36:28.557Z,1.90
2023-03-27T15:37:33.030Z,1.90
2023-03-27T15:38:37.553Z,1.80
2023-03-27T15:39:59.264Z,1.60
2023-03-27T15:41:28.041Z,1.80
2023-03-27T15:42:45.848Z,1.80
2023-03-27T15:43:52.411Z,1.60
2023-03-27T15:45:02.645Z,1.90
2023-03-27T15:47:31.516Z,1.90
2023-03-27T15:48:38.061Z,1.70
2023-03-27T15:49:44.315Z,2.20
2023-03-27T15:50:55.741Z,1.70
2023-03-27T15:52:01.968Z,1.80
2023-03-27T15:53:05.138Z,1.80
2023-03-27T15:54:30.469Z,2.00
2023-03-27T15:55:55.439Z,2.00
2023-03-27T15:57:10.554Z,2.10
2023-03-27T15:58:21.565Z,2.30
2023-03-27T15:59:26.519Z,2.00
2023-03-27T16:00:30.271Z,2.00
2023-03-27T16:01:36.207Z,2.00
2023-03-27T16:02:39.812Z,2.10
2023-03-27T16:03:43.418Z,2.20
2023-03-27T16:04:53.485Z,2.20
2023-03-27T16:05:58.910Z,1.90
2023-03-27T16:07:16.835Z,2.00
2023-03-27T16:08:36.499Z,2.00
2023-03-27T16:09:49.632Z,2.60
2023-03-27T16:10:54.396Z,2.30
2023-03-27T16:11:58.455Z,2.30
2023-03-27T16:13:04.042Z,2.40
2023-03-27T16:14:22.184Z,2.20
2023-03-27T16:15:34.395Z,2.00
2023-03-27T16:16:37.727Z,1.80
2023-03-27T16:17:45.418Z,1.90
2023-03-27T16:18:51.711Z,2.00
2023-03-27T16:19:56.627Z,1.80
2023-03-27T16:21:07.226Z,1.90
2023-03-27T16:23:13.257Z,2.00
2023-03-27T16:24:16.302Z,2.20
2023-03-27T16:25:19.250Z,1.90
2023-03-27T16:26:26.680Z,2.10
2023-03-27T16:27:43.528Z,1.90
2023-03-27T16:28:46.386Z,2.00
2023-03-27T16:29:54.225Z,2.00
2023-03-27T16:30:58.140Z,2.00
2023-03-27T16:32:01.623Z,2.00
2023-03-27T16:33:20.596Z,1.80
2023-03-27T16:34:23.798Z,2.10
2023-03-27T16:35:28.479Z,1.80
2023-03-27T16:36:33.008Z,1.70
2023-03-27T16:37:35.990Z,2.20
2023-03-27T16:38:42.036Z,2.30
2023-03-27T16:39:44.931Z,2.00
2023-03-27T16:40:47.885Z,2.00
2023-03-27T16:41:51.071Z,2.00
2023-03-27T16:42:54.275Z,2.40
2023-03-27T16:43:57.206Z,1.60
2023-03-27T16:45:01.819Z,1.80
2023-03-27T16:46:06.211Z,2.00
2023-03-27T16:47:10.054Z,1.90
2023-03-27T16:48:13.852Z,1.90
2023-03-27T16:49:16.822Z,1.70
2023-03-27T16:50:23.088Z,1.60
2023-03-27T16:51:28.727Z,1.60
2023-03-27T16:52:32.206Z,1.60
2023-03-27T16:53:35.541Z,1.40
2023-03-27T16:54:38.970Z,1.70
2023-03-27T16:55:41.851Z,2.20
2023-03-27T16:56:45.320Z,1.80
2023-03-27T16:57:48.916Z,1.40
2023-03-27T16:58:52.546Z,2.20
2023-03-27T16:59:55.587Z,1.50
2023-03-27T17:00:59.129Z,1.50
2023-03-27T17:02:02.654Z,1.50
2023-03-27T17:03:06.114Z,1.30
2023-03-27T17:04:10.679Z,1.10
2023-03-27T17:05:15.002Z,1.80
2023-03-27T17:06:19.384Z,1.70
2023-03-27T17:07:24.968Z,1.60
2023-03-27T17:08:30.274Z,1.60
2023-03-27T17:09:33.326Z,1.60
2023-03-27T17:10:36.484Z,1.40
2023-03-27T17:11:40.162Z,1.50
2023-03-27T17:12:43.379Z,1.60
2023-03-27T17:13:46.632Z,1.70
2023-03-27T17:14:49.529Z,1.60
2023-03-27T17:15:52.766Z,1.80
2023-03-27T17:16:55.888Z,1.80
2023-03-27T17:17:58.960Z,1.90
2023-03-27T17:19:04.405Z,2.00
2023-03-27T17:20:08.018Z,1.90
2023-03-27T17:21:11.712Z,2.00
2023-03-27T17:22:14.614Z,1.90
2023-03-27T17:23:17.927Z,2.20